createdAt,value
2019-02-18T00:00:42.248Z,32.03
2019-02-18T00:03:11.287Z,30.43
2019-02-18T00:05:40.252Z,32.07
2019-02-18T00:08:09.143Z,33.53
2019-02-18T00:10:38.182Z,31.10
2019-02-18T00:13:07.348Z,31.63
2019-02-18T00:15:36.331Z,33.30
2019-02-18T00:18:05.239Z,29.50
2019-02-18T00:20:34.164Z,32.77
2019-02-18T00:23:03.051Z,31.07
2019-02-18T00:25:32.065Z,30.63
2019-02-18T00:28:01.159Z,32.00
2019-02-18T00:30:30.067Z,28.43
2019-02-18T00:32:58.945Z,32.70
2019-02-18T00:35:27.804Z,34.20
2019-02-18T00:37:56.599Z,31.50
2019-02-18T00:40:25.535Z,32.60
2019-02-18T00:42:54.427Z,33.13
2019-02-18T00:45:23.274Z,38.20
2019-02-18T00:47:52.167Z,30.50
2019-02-18T00:50:21.085Z,32.40
2019-02-18T00:52:49.954Z,32.63
2019-02-18T00:55:18.830Z,32.13
2019-02-18T00:57:47.637Z,31.53
2019-02-18T01:00:17.407Z,32.80
2019-02-18T01:02:46.439Z,30.40
2019-02-18T01:05:15.529Z,31.23
2019-02-18T01:07:44.414Z,31.07
2019-02-18T01:10:13.564Z,30.73
2019-02-18T01:12:42.456Z,29.57
2019-02-18T01:15:12.053Z,35.10
2019-02-18T01:17:41.107Z,33.30
2019-02-18T01:20:10.691Z,39.30
2019-02-18T01:22:39.694Z,31.40
2019-02-18T01:25:09.983Z,29.73
2019-02-18T01:27:38.865Z,33.43
2019-02-18T01:30:10.587Z,32.53
2019-02-18T01:32:39.505Z,31.53
2019-02-18T01:35:09.057Z,33.50
2019-02-18T01:37:45.163Z,28.53
2019-02-18T01:40:10.655Z,34.90
2019-02-18T01:42:39.503Z,32.67
2019-02-18T01:45:09.727Z,27.47
2019-02-18T01:47:38.528Z,33.37
2019-02-18T01:50:10.135Z,31.90
2019-02-18T01:52:39.145Z,32.80
2019-02-18T01:55:08.407Z,34.73
2019-02-18T01:57:37.279Z,32.30
2019-02-18T02:00:06.994Z,36.30
2019-02-18T02:02:35.902Z,28.53
2019-02-18T02:05:05.592Z,31.70
2019-02-18T02:07:34.411Z,33.50
2019-02-18T02:10:03.517Z,36.17
2019-02-18T02:12:32.433Z,30.10
2019-02-18T02:15:01.379Z,31.03
2019-02-18T02:17:30.266Z,30.63
2019-02-18T02:19:59.413Z,33.63
2019-02-18T02:22:28.243Z,31.37
2019-02-18T02:24:57.141Z,33.30
2019-02-18T02:27:26.021Z,30.90
2019-02-18T02:29:54.880Z,36.83
2019-02-18T02:32:23.740Z,31.60
2019-02-18T02:34:52.641Z,34.77
2019-02-18T02:37:21.649Z,34.70
2019-02-18T02:39:50.628Z,37.23
2019-02-18T02:42:19.604Z,34.83
2019-02-18T02:44:48.534Z,33.03
2019-02-18T02:47:17.367Z,32.13
2019-02-18T02:49:46.164Z,29.40
2019-02-18T02:52:14.983Z,32.43
2019-02-18T02:54:43.840Z,35.03
2019-02-18T02:57:12.694Z,34.30
2019-02-18T02:59:41.533Z,31.90
2019-02-18T03:02:10.348Z,32.87
2019-02-18T03:04:39.213Z,39.53
2019-02-18T03:07:08.104Z,30.00
2019-02-18T03:09:36.919Z,30.60
2019-02-18T03:12:05.746Z,33.23
2019-02-18T03:14:34.720Z,33.17
2019-02-18T03:17:03.590Z,27.90
2019-02-18T03:19:32.583Z,32.40
2019-02-18T03:22:01.615Z,35.83
2019-02-18T03:24:30.531Z,30.07
2019-02-18T03:26:59.334Z,29.63
2019-02-18T03:30:09.543Z,31.27
2019-02-18T03:32:53.933Z,30.33
2019-02-18T03:35:22.836Z,33.57
2019-02-18T03:37:51.728Z,34.77
2019-02-18T03:40:20.667Z,33.60
2019-02-18T03:42:49.516Z,34.70
2019-02-18T03:45:18.469Z,28.30
2019-02-18T03:47:47.292Z,31.10
2019-02-18T03:50:16.150Z,28.10
2019-02-18T03:52:45.068Z,30.50
2019-02-18T03:55:13.928Z,29.23
2019-02-18T03:57:42.858Z,31.80
2019-02-18T04:00:11.928Z,30.97
2019-02-18T04:02:40.914Z,32.63
2019-02-18T04:05:09.837Z,27.87
2019-02-18T04:07:38.752Z,30.70
2019-02-18T04:10:07.798Z,33.70
2019-02-18T04:12:36.708Z,29.93
2019-02-18T04:15:06.611Z,29.60
2019-02-18T04:17:35.496Z,30.30
2019-02-18T04:20:04.639Z,31.80
2019-02-18T04:22:33.414Z,32.43
2019-02-18T04:25:02.270Z,31.73
2019-02-18T04:27:31.049Z,34.83
2019-02-18T04:30:00.210Z,34.00
2019-02-18T04:32:29.208Z,29.30
2019-02-18T04:34:58.060Z,36.80
2019-02-18T04:37:26.836Z,34.73
2019-02-18T04:39:55.609Z,34.83
2019-02-18T04:42:24.747Z,31.00
2019-02-18T04:44:53.663Z,29.83
2019-02-18T04:47:22.593Z,30.53
2019-02-18T04:49:51.478Z,36.03
2019-02-18T04:52:20.485Z,34.33
2019-02-18T04:54:49.302Z,36.17
2019-02-18T04:57:18.142Z,36.40
2019-02-18T04:59:47.003Z,34.13
2019-02-18T05:02:15.851Z,32.67
2019-02-18T05:04:44.805Z,39.80
2019-02-18T05:07:13.732Z,33.50
2019-02-18T05:09:42.520Z,35.10
2019-02-18T05:12:11.444Z,29.70
2019-02-18T05:14:40.433Z,31.87
2019-02-18T05:17:09.528Z,32.57
2019-02-18T05:19:38.320Z,40.97
2019-02-18T05:22:07.241Z,34.67
2019-02-18T05:24:36.222Z,32.40
2019-02-18T05:27:05.102Z,33.13
2019-02-18T05:29:33.926Z,33.90
2019-02-18T05:32:24.077Z,32.73
2019-02-18T05:34:53.054Z,32.07
2019-02-18T05:37:21.957Z,31.60
2019-02-18T05:39:50.947Z,35.43
2019-02-18T05:42:19.947Z,32.73
2019-02-18T05:44:48.969Z,33.57
2019-02-18T05:47:17.773Z,36.27
2019-02-18T05:49:46.927Z,35.60
2019-02-18T05:52:15.805Z,32.50
2019-02-18T05:54:44.977Z,35.10
2019-02-18T05:57:14.111Z,34.63
2019-02-18T05:59:42.998Z,36.27
2019-02-18T06:02:12.023Z,38.63
2019-02-18T06:04:41.023Z,40.97
2019-02-18T06:07:09.921Z,32.50
2019-02-18T06:09:39.085Z,34.90
2019-02-18T06:12:09.179Z,39.63
2019-02-18T06:14:38.195Z,38.10
2019-02-18T06:17:07.172Z,39.23
2019-02-18T06:19:36.635Z,32.77
2019-02-18T06:22:05.632Z,36.20
2019-02-18T06:24:34.745Z,32.40
2019-02-18T06:27:03.795Z,30.13
2019-02-18T06:29:32.660Z,37.07
2019-02-18T06:32:01.547Z,39.90
2019-02-18T06:34:30.547Z,37.43
2019-02-18T06:36:59.535Z,33.50
2019-02-18T06:39:40.138Z,35.17
2019-02-18T06:41:59.343Z,35.40
2019-02-18T06:44:50.531Z,35.47
2019-02-18T06:47:25.190Z,33.60
2019-02-18T06:49:53.601Z,36.43
2019-02-18T06:52:22.758Z,35.47
2019-02-18T06:54:51.616Z,33.53
2019-02-18T06:57:40.443Z,42.10
2019-02-18T07:00:25.170Z,43.33
2019-02-18T07:03:04.400Z,38.97
2019-02-18T07:05:40.563Z,34.47
2019-02-18T07:08:15.527Z,38.57
2019-02-18T07:11:06.475Z,31.47
2019-02-18T07:13:35.448Z,34.80
2019-02-18T07:16:04.423Z,36.17
2019-02-18T07:18:33.347Z,33.60
2019-02-18T07:21:03.341Z,32.70
2019-02-18T07:23:32.214Z,36.03
2019-02-18T07:26:01.201Z,33.93
2019-02-18T07:28:30.061Z,32.20
2019-02-18T07:30:59.006Z,31.73
2019-02-18T07:33:27.904Z,30.03
2019-02-18T07:35:56.770Z,33.87
2019-02-18T07:38:25.846Z,31.87
2019-02-18T07:40:54.714Z,31.53
2019-02-18T07:43:23.569Z,32.07
2019-02-18T07:45:52.416Z,28.53
2019-02-18T07:48:21.380Z,29.23
2019-02-18T07:50:50.589Z,29.00
2019-02-18T07:53:19.521Z,29.80
2019-02-18T07:55:48.358Z,29.53
2019-02-18T07:58:17.239Z,30.80
2019-02-18T08:00:46.105Z,29.47
2019-02-18T08:03:15.132Z,30.07
2019-02-18T08:05:44.060Z,28.10
2019-02-18T08:08:12.938Z,30.27
2019-02-18T08:10:41.864Z,27.73
2019-02-18T08:13:10.899Z,32.83
2019-02-18T08:15:39.878Z,31.10
2019-02-18T08:18:08.738Z,29.00
2019-02-18T08:20:37.662Z,28.77
2019-02-18T08:23:06.626Z,30.70
2019-02-18T08:25:35.432Z,30.13
2019-02-18T08:28:04.427Z,25.53
2019-02-18T08:30:33.319Z,28.63
2019-02-18T08:33:02.233Z,28.73
2019-02-18T08:35:31.286Z,28.80
2019-02-18T08:38:01.754Z,34.67
2019-02-18T08:40:30.644Z,30.30
2019-02-18T08:42:59.474Z,28.63
2019-02-18T08:45:28.424Z,28.23
2019-02-18T08:47:57.244Z,27.70
2019-02-18T08:50:26.059Z,26.67
2019-02-18T08:52:54.973Z,27.93
2019-02-18T08:55:23.850Z,32.13
2019-02-18T08:57:52.799Z,27.07
2019-02-18T09:00:21.708Z,25.00
2019-02-18T09:02:50.603Z,26.40
2019-02-18T09:05:19.538Z,27.90
2019-02-18T09:07:48.914Z,25.23
2019-02-18T09:10:17.831Z,23.37
2019-02-18T09:12:46.742Z,32.70
2019-02-18T09:15:15.615Z,25.77
2019-02-18T09:17:44.501Z,27.53
2019-02-18T09:20:14.317Z,23.63
2019-02-18T09:22:59.692Z,27.77
2019-02-18T09:25:35.796Z,27.80
2019-02-18T09:28:04.628Z,23.47
2019-02-18T09:30:35.956Z,26.53
2019-02-18T09:33:05.051Z,28.97
2019-02-18T09:35:33.990Z,25.17
2019-02-18T09:38:02.919Z,27.17
2019-02-18T09:40:43.917Z,22.90
2019-02-18T09:43:03.504Z,31.47
2019-02-18T09:45:32.516Z,30.73
2019-02-18T09:48:00.888Z,26.43
2019-02-18T09:50:29.829Z,28.03
2019-02-18T09:52:58.847Z,29.57
2019-02-18T09:55:27.297Z,26.90
2019-02-18T09:57:56.146Z,25.87
2019-02-18T10:00:25.067Z,25.73
2019-02-18T10:02:53.986Z,22.90
2019-02-18T10:05:23.420Z,22.70
2019-02-18T10:07:52.311Z,25.30
2019-02-18T10:10:21.187Z,27.77
2019-02-18T10:12:50.725Z,24.40
2019-02-18T10:15:19.160Z,20.73
2019-02-18T10:17:47.697Z,22.97
2019-02-18T10:20:16.232Z,19.70
2019-02-18T10:22:44.803Z,26.03
2019-02-18T10:25:14.090Z,27.57
2019-02-18T10:27:43.095Z,25.10
2019-02-18T10:30:12.320Z,25.80
2019-02-18T10:32:41.309Z,20.40
2019-02-18T10:35:10.893Z,24.37
2019-02-18T10:37:39.951Z,24.73
2019-02-18T10:40:09.426Z,25.47
2019-02-18T10:42:38.503Z,25.37
2019-02-18T10:45:08.955Z,23.07
2019-02-18T10:47:37.801Z,27.80
2019-02-18T10:50:07.623Z,22.33
2019-02-18T10:52:36.519Z,27.80
2019-02-18T10:55:05.647Z,26.10
2019-02-18T10:57:35.007Z,23.63
2019-02-18T11:00:05.131Z,22.57
2019-02-18T11:02:33.577Z,25.50
2019-02-18T11:05:02.407Z,22.70
2019-02-18T11:07:31.286Z,23.23
2019-02-18T11:09:59.803Z,22.10
2019-02-18T11:12:28.315Z,26.80
2019-02-18T11:14:56.691Z,23.73
2019-02-18T11:17:25.139Z,22.70
2019-02-18T11:19:53.646Z,23.43
2019-02-18T11:22:22.179Z,25.60
2019-02-18T11:24:50.634Z,23.73
2019-02-18T11:27:19.051Z,22.37
2019-02-18T11:29:47.519Z,25.57
2019-02-18T11:32:16.058Z,26.23
2019-02-18T11:34:44.476Z,21.90
2019-02-18T11:37:13.856Z,26.33
2019-02-18T11:39:42.820Z,21.23
2019-02-18T11:42:11.680Z,22.63
2019-02-18T11:44:40.535Z,19.30
2019-02-18T11:47:09.435Z,22.60
2019-02-18T11:49:38.349Z,22.63
2019-02-18T11:52:07.354Z,25.27
2019-02-18T11:54:36.247Z,22.97
2019-02-18T11:57:05.277Z,22.40
2019-02-18T11:59:34.150Z,21.60
2019-02-18T12:02:03.545Z,23.33
2019-02-18T12:04:32.851Z,25.47
2019-02-18T12:07:01.740Z,23.93
2019-02-18T12:09:30.174Z,20.87
2019-02-18T12:11:59.442Z,20.80
2019-02-18T12:14:34.090Z,22.77
2019-02-18T12:17:02.704Z,24.00
2019-02-18T12:19:31.126Z,28.63
2019-02-18T12:21:59.978Z,20.17
2019-02-18T12:24:28.440Z,24.77
2019-02-18T12:26:57.404Z,26.23
2019-02-18T12:29:26.874Z,29.33
2019-02-18T12:31:55.945Z,28.20
2019-02-18T12:34:24.913Z,25.13
2019-02-18T12:36:54.220Z,27.97
2019-02-18T12:39:23.090Z,26.90
2019-02-18T12:41:52.058Z,26.43
2019-02-18T12:44:21.062Z,25.03
2019-02-18T12:46:50.012Z,23.70
2019-02-18T12:49:18.931Z,24.37
2019-02-18T12:51:48.072Z,22.57
2019-02-18T12:54:16.982Z,33.10
2019-02-18T12:56:45.993Z,33.13
2019-02-18T12:59:14.910Z,22.80
2019-02-18T13:01:43.874Z,23.67
2019-02-18T13:04:12.772Z,26.93
2019-02-18T13:06:41.722Z,27.40
2019-02-18T13:09:10.899Z,25.23
2019-02-18T13:11:39.808Z,25.90
2019-02-18T13:14:08.738Z,23.20
2019-02-18T13:16:37.610Z,30.27
2019-02-18T13:19:06.643Z,24.83
2019-02-18T13:21:35.595Z,27.30
2019-02-18T13:24:04.866Z,27.70
2019-02-18T13:26:33.846Z,22.40
2019-02-18T13:29:03.141Z,27.57
2019-02-18T13:31:32.450Z,25.30
2019-02-18T13:34:01.321Z,23.00
2019-02-18T13:36:30.218Z,25.87
2019-02-18T13:38:59.457Z,24.20
2019-02-18T13:41:28.541Z,21.70
2019-02-18T13:43:57.578Z,22.30
2019-02-18T13:46:26.531Z,23.00
2019-02-18T13:48:56.503Z,20.40
2019-02-18T13:51:25.478Z,26.77
2019-02-18T13:53:54.766Z,21.17
2019-02-18T13:56:23.691Z,29.43
2019-02-18T13:58:52.879Z,21.17
2019-02-18T14:01:21.872Z,22.73
2019-02-18T14:03:50.753Z,24.87
2019-02-18T14:06:20.367Z,33.17
2019-02-18T14:08:49.265Z,23.63
2019-02-18T14:11:18.401Z,22.80
2019-02-18T14:13:47.520Z,19.53
2019-02-18T14:16:16.478Z,23.80
2019-02-18T14:18:45.516Z,22.20
2019-02-18T14:21:14.389Z,26.23
2019-02-18T14:23:43.330Z,23.60
2019-02-18T14:26:12.346Z,31.60
2019-02-18T14:28:41.681Z,22.57
2019-02-18T14:31:10.541Z,21.30
2019-02-18T14:33:39.403Z,25.33
2019-02-18T14:36:08.389Z,25.50
2019-02-18T14:38:37.417Z,28.30
2019-02-18T14:41:06.305Z,24.93
2019-02-18T14:43:35.623Z,26.90
2019-02-18T14:46:04.527Z,24.00
2019-02-18T14:48:33.411Z,31.17
2019-02-18T14:51:02.322Z,22.43
2019-02-18T14:53:31.543Z,22.63
2019-02-18T14:56:00.540Z,21.13
2019-02-18T14:58:29.961Z,23.53
2019-02-18T15:00:58.889Z,27.30
2019-02-18T15:03:27.973Z,23.13
2019-02-18T15:05:57.001Z,23.53
2019-02-18T15:08:25.931Z,23.73
2019-02-18T15:10:54.961Z,24.93
2019-02-18T15:13:23.993Z,24.30
2019-02-18T15:15:52.884Z,23.63
2019-02-18T15:18:21.837Z,22.33
2019-02-18T15:20:50.823Z,23.87
2019-02-18T15:23:19.825Z,23.13
2019-02-18T15:25:48.751Z,23.13
2019-02-18T15:28:17.737Z,26.80
2019-02-18T15:30:46.815Z,22.17
2019-02-18T15:33:15.789Z,26.30
2019-02-18T15:35:44.702Z,24.67
2019-02-18T15:38:13.750Z,22.67
2019-02-18T15:40:42.741Z,22.67
2019-02-18T15:43:11.769Z,25.30
2019-02-18T15:45:40.793Z,26.80
2019-02-18T15:48:09.873Z,20.60
2019-02-18T15:50:38.406Z,23.03
2019-02-18T15:53:07.371Z,22.47
2019-02-18T15:55:36.465Z,25.00
2019-02-18T15:58:05.924Z,28.40
2019-02-18T16:00:35.493Z,22.23
2019-02-18T16:03:05.303Z,24.10
2019-02-18T16:05:34.189Z,24.07
2019-02-18T16:08:03.439Z,29.13
2019-02-18T16:10:32.399Z,21.07
2019-02-18T16:13:01.356Z,21.80
2019-02-18T16:15:30.583Z,19.40
2019-02-18T16:17:59.488Z,23.17
2019-02-18T16:20:28.557Z,22.70
2019-02-18T16:22:57.483Z,23.07
2019-02-18T16:25:26.450Z,22.87
2019-02-18T16:27:55.355Z,24.57
2019-02-18T16:30:24.856Z,24.17
2019-02-18T16:32:53.863Z,27.20
2019-02-18T16:35:23.367Z,26.20
2019-02-18T16:37:52.290Z,25.03
2019-02-18T16:40:21.483Z,24.20
2019-02-18T16:42:58.892Z,25.60
2019-02-18T16:45:21.294Z,23.50
2019-02-18T16:47:50.250Z,24.40
2019-02-18T16:50:19.172Z,21.93
2019-02-18T16:52:48.104Z,26.53
2019-02-18T16:55:17.104Z,25.20
2019-02-18T16:57:46.009Z,23.40
2019-02-18T17:00:41.114Z,25.40
2019-02-18T17:03:09.977Z,26.73
2019-02-18T17:05:38.624Z,24.30
2019-02-18T17:08:07.559Z,26.17
2019-02-18T17:10:36.611Z,26.23
2019-02-18T17:13:08.129Z,25.60
2019-02-18T17:15:36.294Z,27.73
2019-02-18T17:18:05.408Z,29.13
2019-02-18T17:20:34.334Z,25.50
2019-02-18T17:23:03.272Z,36.00
2019-02-18T17:25:32.360Z,28.37
2019-02-18T17:28:01.328Z,29.10
2019-02-18T17:30:30.232Z,29.67
2019-02-18T17:32:59.213Z,32.73
2019-02-18T17:35:28.089Z,30.27
2019-02-18T17:37:56.998Z,26.17
2019-02-18T17:40:26.890Z,28.70
2019-02-18T17:42:55.924Z,27.70
2019-02-18T17:45:24.951Z,27.50
2019-02-18T17:47:53.852Z,27.07
2019-02-18T17:50:22.774Z,27.90
2019-02-18T17:52:51.758Z,32.60
2019-02-18T17:55:21.155Z,23.83
2019-02-18T17:57:50.049Z,24.80
2019-02-18T18:00:21.531Z,30.93
2019-02-18T18:02:50.667Z,25.53
2019-02-18T18:05:19.727Z,26.10
2019-02-18T18:07:48.967Z,28.10
2019-02-18T18:10:18.260Z,25.30
2019-02-18T18:12:47.289Z,25.70
2019-02-18T18:15:16.334Z,32.33
2019-02-18T18:17:45.330Z,25.80
2019-02-18T18:20:14.331Z,24.70
2019-02-18T18:22:43.336Z,27.40
2019-02-18T18:25:12.762Z,29.87
2019-02-18T18:27:41.731Z,25.60
2019-02-18T18:30:11.726Z,26.77
2019-02-18T18:32:40.617Z,25.00
2019-02-18T18:35:10.208Z,29.13
2019-02-18T18:37:39.857Z,25.13
2019-02-18T18:40:11.070Z,24.03
2019-02-18T18:42:39.958Z,25.00
2019-02-18T18:45:10.357Z,25.80
2019-02-18T18:47:39.240Z,26.50
2019-02-18T18:50:10.766Z,36.03
2019-02-18T18:52:39.686Z,29.83
2019-02-18T18:55:08.815Z,30.07
2019-02-18T18:57:37.821Z,33.63
2019-02-18T19:00:09.009Z,29.03
2019-02-18T19:02:38.006Z,29.10
2019-02-18T19:05:07.267Z,24.70
2019-02-18T19:07:36.575Z,27.27
2019-02-18T19:10:06.165Z,30.60
2019-02-18T19:12:35.251Z,28.83
2019-02-18T19:15:04.963Z,34.80
2019-02-18T19:17:33.853Z,37.87
2019-02-18T19:20:02.797Z,27.87
2019-02-18T19:22:31.981Z,34.23
2019-02-18T19:25:01.044Z,26.23
2019-02-18T19:27:30.110Z,29.57
2019-02-18T19:29:59.068Z,28.80
2019-02-18T19:32:28.197Z,31.10
2019-02-18T19:34:57.261Z,32.23
2019-02-18T19:37:26.671Z,28.93
2019-02-18T19:39:55.729Z,28.20
2019-02-18T19:42:24.702Z,31.93
2019-02-18T19:44:53.693Z,29.07
2019-02-18T19:47:22.553Z,25.97
2019-02-18T19:49:51.499Z,28.33
2019-02-18T19:52:20.583Z,27.20
2019-02-18T19:54:49.601Z,27.67
2019-02-18T19:58:46.763Z,32.80
2019-02-18T20:02:40.593Z,34.23
2019-02-18T20:05:56.915Z,27.47
2019-02-18T20:08:26.080Z,24.40
2019-02-18T20:10:55.081Z,36.87
2019-02-18T20:13:24.059Z,29.10
2019-02-18T20:15:53.033Z,27.10
2019-02-18T20:18:21.937Z,28.07
2019-02-18T20:20:50.991Z,38.83
2019-02-18T20:23:20.014Z,45.00
2019-02-18T20:25:49.015Z,28.30
2019-02-18T20:28:18.011Z,28.73
2019-02-18T20:30:47.053Z,43.27
2019-02-18T20:33:16.129Z,36.73
2019-02-18T20:35:45.421Z,31.87
2019-02-18T20:38:26.872Z,30.93
2019-02-18T20:41:51.867Z,27.40
2019-02-18T20:44:21.281Z,31.87
2019-02-18T20:46:50.272Z,38.60
2019-02-18T20:49:19.227Z,32.53
2019-02-18T20:51:48.465Z,29.40
2019-02-18T20:54:17.441Z,29.70
2019-02-18T20:56:46.432Z,30.57
2019-02-18T20:59:15.449Z,31.43
2019-02-18T21:01:53.193Z,28.30
2019-02-18T21:04:22.086Z,29.60
2019-02-18T21:06:51.189Z,25.20
2019-02-18T21:09:20.226Z,33.97
2019-02-18T21:11:49.343Z,31.57
2019-02-18T21:14:18.225Z,27.30
2019-02-18T21:16:47.092Z,25.67
2019-02-18T21:19:15.957Z,33.33
2019-02-18T21:25:54.018Z,31.97
2019-02-18T21:28:22.926Z,32.97
2019-02-18T21:30:52.149Z,26.60
2019-02-18T21:33:21.063Z,26.43
2019-02-18T21:35:50.001Z,32.00
2019-02-18T21:38:19.165Z,28.00
2019-02-18T21:40:53.565Z,26.10
2019-02-18T21:43:22.571Z,27.47
2019-02-18T21:45:51.518Z,26.70
2019-02-18T21:48:20.665Z,29.10
2019-02-18T21:50:49.755Z,29.30
2019-02-18T21:53:18.678Z,25.93
2019-02-18T21:55:47.992Z,28.63
2019-02-18T21:58:17.669Z,30.07
2019-02-18T22:00:46.830Z,30.10
2019-02-18T22:03:17.594Z,31.90
2019-02-18T22:05:46.640Z,31.07
2019-02-18T22:08:15.696Z,31.17
2019-02-18T22:10:44.792Z,29.07
2019-02-18T22:13:14.062Z,26.60
2019-02-18T22:15:43.098Z,25.80
2019-02-18T22:18:13.104Z,30.80
2019-02-18T22:20:42.072Z,27.10
2019-02-18T22:23:11.066Z,33.23
2019-02-18T22:25:40.037Z,28.00
2019-02-18T22:28:08.998Z,28.40
2019-02-18T22:30:38.323Z,33.90
2019-02-18T22:33:07.322Z,29.13
2019-02-18T22:35:36.206Z,31.00
2019-02-18T22:38:05.217Z,30.53
2019-02-18T22:40:34.277Z,33.07
2019-02-18T22:43:03.096Z,28.60
2019-02-18T22:45:32.134Z,29.00
2019-02-18T22:48:01.065Z,28.13
2019-02-18T22:50:30.032Z,30.53
2019-02-18T22:52:59.285Z,27.30
2019-02-18T22:55:28.169Z,30.60
2019-02-18T22:57:57.132Z,30.50
2019-02-18T23:00:51.317Z,28.90
2019-02-18T23:03:20.986Z,27.43
2019-02-18T23:05:50.040Z,28.90
2019-02-18T23:08:19.008Z,29.80
2019-02-18T23:10:48.136Z,34.80
2019-02-18T23:13:17.387Z,32.33
2019-02-18T23:15:46.374Z,27.43
2019-02-18T23:18:15.403Z,29.07
2019-02-18T23:20:45.312Z,31.77
2019-02-18T23:23:14.174Z,29.47
2019-02-18T23:25:43.084Z,28.20
2019-02-18T23:28:12.110Z,29.53
2019-02-18T23:30:41.042Z,28.97
2019-02-18T23:33:09.945Z,26.87
2019-02-18T23:35:39.032Z,29.70
2019-02-18T23:38:08.048Z,31.70
2019-02-18T23:40:36.918Z,30.27
2019-02-18T23:43:05.822Z,30.60
2019-02-18T23:45:34.817Z,29.13
2019-02-18T23:48:03.762Z,30.57
2019-02-18T23:50:32.592Z,31.57
2019-02-18T23:53:01.473Z,28.80
2019-02-18T23:55:30.360Z,27.97
2019-02-18T23:57:59.205Z,27.63
